Hampton, Connecticut
Current Conditions -  °F | °C
As of 10:52 PM on Saturday 24 Jan 2015 (Local Time) from KIJD Reporting Station
Overcast Overcast  
Wind Chill: 22°   Ceiling: 7000
Heat Index: 32°   Visibility: 10mi
Dew Point: 24°   Wind: 14mph
Humidity: 73%   Direction: 310°NW
Pressure: 29.35"   Gusts: 22mph
Location:  41.78°N, 72.06°W
Report Text: KIJD 250352Z AUTO 31012G19KT 10SM OVC070 00/M04 A2935 RMK AO2 SLP941 T00001044 $
Loading
Personal Weather Stations






























Interactive Weather Map New forecast layout! Learn more

10-Day Weather Forecast

Advertisements
Track Severe Weather on mobile